Ewen, MI

6:11 AM EDT on October 25, 2014 (GMT -0400)
East Shore Rd, Marenisco | Change Station
CLOSE
Current Station
Personal Weather Station
Location: Marenisco, MI
Elevation: 1316 ft
Nearby Weather Stations

Elev 1316 ft 46.46 °N, 89.53 °W | Updated 4 minutes ago

Clear
Clear
53.4 °F
Feels Like 53.4 °F
N
9.9
Wind Variable Wind from West

Today
High -- | Low -- °F
--% Chance of Precip.
Yesterday
High -- | Low -- °F
Precip. -- in
8:29 AM 6:53 PM
New Moon, 2% visible
Pressure 29.79 in
Visibility 10.0 miles
Clouds Clear
Dew Point 42 °F
Humidity 64%
Rainfall 0.00 in
Snow Depth Not available.
UV 0 out of 12
Pollen .60 out of 12
Air Quality Not available.
Flu Activity Sporadic
METAR KLNL 250955Z AUTO 26004KT 10SM CLR 10/06 A2979 RMK AO2 T00950060

More Conditions Fewer Conditions

Pressure 29.79 in
Visibility 10.0 miles
Clouds Clear
Dew Point 42 °F
Humidity 64%
Rainfall 0.00 in
Snow Depth Not available.
UV 0 out of 12
Pollen .60 out of 12
Air Quality Not available.
Flu Activity Sporadic
METAR KLNL 250955Z AUTO 26004KT 10SM CLR 10/06 A2979 RMK AO2 T00950060

More Conditions Fewer Conditions

10-Day Weather Forecast

Almanac

Astronomy

Oct. 25, 2014 Rise Set
Actual Time 8:29 AM EDT 6:53 PM EDT
Civil Twilight 7:58 AM EDT 7:24 PM EDT
Nautical Twilight 7:22 AM EDT 7:59 PM EDT
Astronomical Twilight 6:47 AM EDT 8:34 PM EDT
Moon 10:12 AM EDT 8:11 PM EDT
Length of Visible Light 11h 26m
Length of Day
10h 24m
Tomorrow will be 3m 4s shorter.
New Moon, 2% of the Moon is Illuminated
Today
New Moon
Oct 30
First Quarter
Nov 6
Full
Nov 14
Last Quarter
Nov 22
New

Today's Extremes

State Highs State Lows

Community

WunderPhotos

Upload Photos

1,764,796 photos uploaded!

Nearby

Snow Depth

Station Depth Elevation
No new snow has been reported.

Earthquake Activity

City Distance Mag. Time & Date
No recent earthquake activity has been reported nearby.
Minimum magnitude displayed is 2.5.

Coastal Water Temperatures

Place Temperature
No Stations Reporting

Nearby Weather Stations